createdAt,value
2024-05-09T00:02:06.691Z,12.74
2024-05-09T00:04:32.985Z,12.71
2024-05-09T00:06:59.310Z,12.69
2024-05-09T00:09:25.675Z,12.67
2024-05-09T00:11:52.298Z,12.66
2024-05-09T00:14:18.780Z,12.66
2024-05-09T00:16:45.081Z,12.65
2024-05-09T00:19:11.477Z,12.65
2024-05-09T00:21:38.012Z,12.63
2024-05-09T00:24:04.278Z,12.62
2024-05-09T00:26:30.591Z,12.60
2024-05-09T00:28:57.098Z,12.58
2024-05-09T00:31:27.655Z,12.55
2024-05-09T00:33:54.129Z,12.53
2024-05-09T00:36:20.568Z,12.49
2024-05-09T00:38:46.932Z,12.47
2024-05-09T00:41:14.581Z,12.45
2024-05-09T00:43:42.153Z,12.43
2024-05-09T00:46:08.606Z,12.40
2024-05-09T00:48:35.012Z,12.39
2024-05-09T00:51:01.732Z,12.38
2024-05-09T00:53:28.209Z,12.36
2024-05-09T00:55:54.673Z,12.34
2024-05-09T00:58:21.005Z,12.32
2024-05-09T01:00:47.445Z,12.30
2024-05-09T01:03:14.520Z,12.27
2024-05-09T01:05:41.605Z,12.23
2024-05-09T01:08:08.401Z,12.21
2024-05-09T01:10:36.123Z,12.21
2024-05-09T01:13:03.018Z,12.19
2024-05-09T01:15:29.445Z,12.13
2024-05-09T01:17:56.310Z,12.07
2024-05-09T01:20:31.871Z,12.02
2024-05-09T01:23:06.329Z,11.99
2024-05-09T01:25:32.701Z,11.97
2024-05-09T01:27:58.963Z,11.94
2024-05-09T01:30:31.912Z,11.89
2024-05-09T01:33:01.961Z,11.84
2024-05-09T01:35:31.998Z,11.79
2024-05-09T01:37:58.452Z,11.76
2024-05-09T01:40:33.562Z,11.74
2024-05-09T01:43:04.092Z,11.72
2024-05-09T01:45:30.396Z,11.68
2024-05-09T01:47:56.955Z,11.63
2024-05-09T01:50:35.713Z,11.58
2024-05-09T01:53:05.334Z,11.50
2024-05-09T01:55:31.594Z,11.41
2024-05-09T01:57:57.842Z,11.30
2024-05-09T02:00:33.859Z,11.21
2024-05-09T02:03:05.750Z,11.13
2024-05-09T02:05:32.253Z,11.10
2024-05-09T02:07:58.663Z,11.05
2024-05-09T02:10:31.754Z,11.01
2024-05-09T02:12:59.264Z,10.98
2024-05-09T02:15:25.563Z,10.96
2024-05-09T02:17:52.067Z,10.94
2024-05-09T02:20:27.163Z,10.92
2024-05-09T02:22:59.762Z,10.89
2024-05-09T02:25:26.078Z,10.85
2024-05-09T02:27:52.411Z,10.80
2024-05-09T02:30:26.200Z,10.77
2024-05-09T02:33:02.260Z,10.73
2024-05-09T02:35:28.767Z,10.69
2024-05-09T02:37:55.087Z,10.66
2024-05-09T02:40:28.923Z,10.63
2024-05-09T02:43:02.261Z,10.59
2024-05-09T02:45:28.553Z,10.56
2024-05-09T02:47:55.110Z,10.55
2024-05-09T02:50:29.741Z,10.54
2024-05-09T02:53:03.172Z,10.55
2024-05-09T02:55:29.492Z,10.56
2024-05-09T02:57:55.834Z,10.57
2024-05-09T03:00:34.841Z,10.58
2024-05-09T03:03:06.473Z,10.60
2024-05-09T03:05:33.199Z,10.61
2024-05-09T03:07:59.792Z,10.62
2024-05-09T03:10:28.931Z,10.63
2024-05-09T03:12:59.236Z,10.63
2024-05-09T03:15:25.598Z,10.63
2024-05-09T03:17:52.099Z,10.63
2024-05-09T03:20:23.758Z,10.62
2024-05-09T03:22:56.880Z,10.64
2024-05-09T03:25:23.425Z,10.64
2024-05-09T03:27:49.869Z,10.63
2024-05-09T03:30:28.770Z,10.63
2024-05-09T03:33:02.105Z,10.62
2024-05-09T03:35:28.690Z,10.61
2024-05-09T03:37:54.982Z,10.58
2024-05-09T03:40:26.211Z,10.56
2024-05-09T03:42:53.056Z,10.54
2024-05-09T03:45:19.400Z,10.51
2024-05-09T03:47:46.382Z,10.51
2024-05-09T03:50:18.510Z,10.50
2024-05-09T03:52:52.668Z,10.48
2024-05-09T03:55:19.176Z,10.47
2024-05-09T03:57:45.509Z,10.49
2024-05-09T04:00:17.926Z,10.52
2024-05-09T04:02:52.112Z,10.56
2024-05-09T04:05:18.458Z,10.59
2024-05-09T04:07:44.890Z,10.64
2024-05-09T04:10:20.622Z,10.70
2024-05-09T04:12:50.663Z,10.77
2024-05-09T04:15:16.959Z,10.83
2024-05-09T04:17:43.569Z,10.89
2024-05-09T04:20:12.476Z,10.96
2024-05-09T04:22:44.659Z,11.03
2024-05-09T04:25:11.014Z,11.10
2024-05-09T04:27:37.245Z,11.17
2024-05-09T04:30:03.755Z,11.21
2024-05-09T04:32:31.710Z,11.25
2024-05-09T04:34:58.138Z,11.28
2024-05-09T04:37:24.611Z,11.32
2024-05-09T04:39:50.988Z,11.35
2024-05-09T04:42:17.382Z,11.35
2024-05-09T04:44:44.759Z,11.36
2024-05-09T04:47:11.279Z,11.38
2024-05-09T04:49:37.774Z,11.43
2024-05-09T04:52:04.050Z,11.51
2024-05-09T04:54:36.068Z,11.56
2024-05-09T04:57:03.117Z,11.64
2024-05-09T04:59:29.491Z,11.74
2024-05-09T05:01:55.815Z,11.83
2024-05-09T05:04:22.194Z,11.94
2024-05-09T05:06:48.583Z,12.03
2024-05-09T05:09:15.056Z,12.11
2024-05-09T05:11:41.382Z,12.18
2024-05-09T05:14:07.924Z,12.24
2024-05-09T05:16:34.172Z,12.28
2024-05-09T05:19:00.511Z,12.29
2024-05-09T05:21:27.155Z,12.31
2024-05-09T05:23:53.803Z,12.35
2024-05-09T05:26:20.129Z,12.42
2024-05-09T05:28:46.499Z,12.52
2024-05-09T05:31:12.760Z,12.62
2024-05-09T05:33:39.281Z,12.72
2024-05-09T05:36:05.961Z,12.80
2024-05-09T05:38:32.725Z,12.88
2024-05-09T05:40:59.248Z,12.93
2024-05-09T05:43:25.522Z,13.00
2024-05-09T05:45:51.835Z,13.06
2024-05-09T05:48:18.504Z,13.11
2024-05-09T05:50:45.146Z,13.13
2024-05-09T05:53:11.473Z,13.18
2024-05-09T05:55:37.819Z,13.25
2024-05-09T05:58:04.304Z,13.35
2024-05-09T06:00:37.803Z,13.44
2024-05-09T06:03:06.333Z,13.48
2024-05-09T06:05:33.500Z,13.48
2024-05-09T06:08:00.019Z,13.51
2024-05-09T06:10:35.025Z,13.59
2024-05-09T06:13:07.635Z,13.71
2024-05-09T06:15:34.284Z,13.80
2024-05-09T06:18:00.894Z,13.93
2024-05-09T06:20:35.058Z,14.07
2024-05-09T06:23:03.723Z,14.18
2024-05-09T06:25:30.017Z,14.30
2024-05-09T06:27:56.257Z,14.42
2024-05-09T06:30:30.033Z,14.52
2024-05-09T06:33:03.546Z,14.59
2024-05-09T06:35:30.224Z,14.66
2024-05-09T06:37:56.678Z,14.76
2024-05-09T06:40:29.202Z,14.88
2024-05-09T06:43:00.505Z,15.03
2024-05-09T06:45:26.966Z,15.12
2024-05-09T06:47:53.414Z,15.21
2024-05-09T06:50:24.025Z,15.28
2024-05-09T06:52:54.198Z,15.32
2024-05-09T06:55:20.537Z,15.37
2024-05-09T06:57:46.989Z,15.42
2024-05-09T07:00:19.150Z,15.46
2024-05-09T07:02:53.769Z,15.54
2024-05-09T07:05:20.278Z,15.60
2024-05-09T07:07:47.200Z,15.62
2024-05-09T07:10:21.536Z,15.70
2024-05-09T07:12:51.866Z,15.81
2024-05-09T07:15:18.183Z,15.92
2024-05-09T07:17:44.642Z,16.05
2024-05-09T07:20:16.198Z,16.14
2024-05-09T07:22:46.432Z,16.18
2024-05-09T07:25:12.892Z,16.25
2024-05-09T07:27:39.482Z,16.32
2024-05-09T07:30:07.247Z,16.39
2024-05-09T07:32:35.067Z,16.49
2024-05-09T07:35:01.729Z,16.60
2024-05-09T07:37:28.027Z,16.70
2024-05-09T07:39:54.324Z,16.81
2024-05-09T07:42:20.737Z,16.97
2024-05-09T07:44:46.982Z,17.08
2024-05-09T07:48:27.949Z,17.25
2024-05-09T07:51:47.492Z,17.43
2024-05-09T07:53:34.484Z,17.53
2024-05-09T07:55:32.376Z,17.67
2024-05-09T07:57:58.908Z,17.85
2024-05-09T08:00:31.050Z,18.02
2024-05-09T08:02:58.369Z,18.22
2024-05-09T08:05:24.915Z,18.40
2024-05-09T08:07:53.811Z,18.56
2024-05-09T08:10:24.500Z,18.76
2024-05-09T08:12:53.651Z,18.91
2024-05-09T08:15:20.054Z,19.09
2024-05-09T08:17:46.408Z,19.23
2024-05-09T08:20:15.922Z,19.38
2024-05-09T08:22:45.182Z,19.51
2024-05-09T08:25:13.544Z,19.61
2024-05-09T08:27:40.524Z,19.63
2024-05-09T08:30:10.105Z,19.61
2024-05-09T08:32:36.747Z,19.70
2024-05-09T08:35:03.614Z,19.87
2024-05-09T08:37:34.993Z,20.05
2024-05-09T08:40:05.271Z,20.23
2024-05-09T08:42:35.854Z,20.26
2024-05-09T08:45:02.257Z,20.19
2024-05-09T08:47:28.592Z,20.28
2024-05-09T08:49:55.006Z,20.37
2024-05-09T08:52:25.578Z,20.44
2024-05-09T08:54:51.863Z,20.40
2024-05-09T08:57:18.141Z,20.37
2024-05-09T08:59:44.422Z,20.43
2024-05-09T09:02:11.123Z,20.53
2024-05-09T09:04:37.817Z,20.64
2024-05-09T09:07:04.361Z,20.78
2024-05-09T09:09:30.786Z,20.98
2024-05-09T09:11:57.331Z,21.14
2024-05-09T09:14:23.749Z,21.24
2024-05-09T09:16:50.055Z,21.30
2024-05-09T09:19:16.476Z,21.30
2024-05-09T09:21:42.883Z,21.24
2024-05-09T09:24:10.032Z,21.24
2024-05-09T09:26:36.457Z,21.29
2024-05-09T09:29:02.802Z,21.34
2024-05-09T09:31:29.139Z,21.36
2024-05-09T09:33:55.910Z,21.38
2024-05-09T09:36:22.411Z,21.43
2024-05-09T09:38:50.675Z,21.58
2024-05-09T09:41:16.989Z,21.74
2024-05-09T09:43:43.303Z,21.80
2024-05-09T09:46:12.454Z,21.89
2024-05-09T09:48:39.257Z,22.03
2024-05-09T09:51:05.890Z,22.08
2024-05-09T09:53:32.162Z,22.15
2024-05-09T09:55:58.466Z,22.34
2024-05-09T09:58:25.051Z,22.50
2024-05-09T10:00:54.061Z,22.56
2024-05-09T10:03:20.585Z,22.62
2024-05-09T10:05:47.501Z,22.64
2024-05-09T10:08:14.102Z,22.68
2024-05-09T10:10:40.632Z,22.82
2024-05-09T10:13:07.313Z,22.96
2024-05-09T10:15:36.727Z,23.02
2024-05-09T10:18:03.190Z,23.06
2024-05-09T10:20:32.593Z,23.00
2024-05-09T10:22:59.327Z,22.98
2024-05-09T10:25:25.689Z,23.03
2024-05-09T10:27:52.054Z,23.06
2024-05-09T10:30:25.849Z,23.05
2024-05-09T10:32:56.347Z,22.85
2024-05-09T10:35:22.734Z,22.84
2024-05-09T10:37:49.167Z,22.97
2024-05-09T10:40:23.077Z,23.04
2024-05-09T10:42:55.106Z,23.03
2024-05-09T10:45:21.384Z,23.00
2024-05-09T10:47:47.804Z,23.00
2024-05-09T10:50:22.277Z,23.03
2024-05-09T10:52:54.583Z,23.11
2024-05-09T10:55:20.985Z,23.21
2024-05-09T10:57:47.493Z,23.26
2024-05-09T11:00:23.202Z,23.29
2024-05-09T11:02:56.474Z,23.42
2024-05-09T11:05:23.265Z,23.52
2024-05-09T11:07:49.805Z,23.61
2024-05-09T11:10:24.354Z,23.69
2024-05-09T11:12:53.843Z,23.92
2024-05-09T11:15:20.168Z,24.06
2024-05-09T11:17:46.519Z,24.17
2024-05-09T11:20:19.586Z,24.24
2024-05-09T11:22:52.679Z,24.41
2024-05-09T11:25:19.202Z,24.33
2024-05-09T11:27:45.640Z,23.93
2024-05-09T11:30:17.420Z,23.70
2024-05-09T11:32:50.123Z,23.77
2024-05-09T11:35:16.662Z,23.88
2024-05-09T11:37:42.914Z,24.01
2024-05-09T11:40:13.939Z,24.09
2024-05-09T11:42:49.921Z,24.18
2024-05-09T11:45:17.820Z,24.25
2024-05-09T11:47:44.320Z,24.35
2024-05-09T11:50:16.320Z,24.43
2024-05-09T11:52:48.971Z,24.56
2024-05-09T11:55:15.439Z,24.68
2024-05-09T11:57:41.886Z,24.79
2024-05-09T12:00:14.815Z,24.92
2024-05-09T12:02:44.104Z,24.91
2024-05-09T12:05:10.435Z,24.90
2024-05-09T12:07:36.825Z,24.88
2024-05-09T12:10:04.688Z,24.77
2024-05-09T12:12:35.512Z,24.84
2024-05-09T12:15:03.367Z,25.05
2024-05-09T12:17:29.860Z,25.22
2024-05-09T12:19:56.241Z,25.29
2024-05-09T12:22:25.630Z,25.38
2024-05-09T12:24:51.987Z,25.50
2024-05-09T12:27:18.373Z,25.52
2024-05-09T12:29:44.604Z,25.43
2024-05-09T12:32:11.144Z,25.43
2024-05-09T12:34:37.515Z,25.30
2024-05-09T12:37:03.857Z,24.89
2024-05-09T12:39:30.393Z,24.52
2024-05-09T12:41:57.969Z,24.44
2024-05-09T12:44:24.206Z,24.48
2024-05-09T12:46:51.747Z,24.69
2024-05-09T12:49:20.855Z,24.94
2024-05-09T12:51:47.245Z,25.08
2024-05-09T12:54:13.570Z,25.11
2024-05-09T12:56:39.823Z,25.14
2024-05-09T12:59:06.061Z,25.33
2024-05-09T13:01:33.521Z,25.46
2024-05-09T13:04:00.184Z,25.52
2024-05-09T13:06:26.822Z,25.65
2024-05-09T13:08:55.107Z,25.73
2024-05-09T13:11:21.490Z,25.73
2024-05-09T13:13:47.833Z,25.59
2024-05-09T13:16:14.317Z,25.55
2024-05-09T13:18:40.650Z,25.62
2024-05-09T13:21:07.070Z,25.67
2024-05-09T13:23:33.320Z,25.60
2024-05-09T13:25:59.586Z,25.50
2024-05-09T13:28:26.034Z,25.44
2024-05-09T13:30:52.423Z,25.47
2024-05-09T13:33:18.853Z,25.47
2024-05-09T13:35:49.178Z,25.45
2024-05-09T13:38:17.331Z,25.55
2024-05-09T13:40:43.632Z,25.71
2024-05-09T13:43:10.027Z,25.85
2024-05-09T13:45:36.348Z,25.86
2024-05-09T13:48:02.956Z,25.82
2024-05-09T13:50:34.215Z,25.84
2024-05-09T13:53:02.600Z,25.89
2024-05-09T13:55:29.034Z,26.06
2024-05-09T13:57:55.694Z,26.11
2024-05-09T14:02:54.709Z,26.04
2024-05-09T14:05:21.329Z,26.04
2024-05-09T14:07:47.737Z,26.07
2024-05-09T14:10:22.633Z,26.00
2024-05-09T14:12:53.026Z,26.17
2024-05-09T14:15:19.393Z,26.36
2024-05-09T14:17:45.705Z,26.44
2024-05-09T14:20:14.211Z,26.36
2024-05-09T14:22:45.618Z,26.13
2024-05-09T14:25:12.130Z,26.00
2024-05-09T14:27:38.783Z,26.01
2024-05-09T14:30:09.508Z,26.05
2024-05-09T14:32:41.480Z,26.13
2024-05-09T14:35:07.963Z,26.11
2024-05-09T14:37:36.339Z,25.97
2024-05-09T14:40:05.062Z,25.85
2024-05-09T14:42:33.283Z,25.60
2024-05-09T14:44:59.560Z,25.35
2024-05-09T14:47:28.725Z,25.13
2024-05-09T14:49:55.308Z,24.94
2024-05-09T14:52:21.724Z,24.81
2024-05-09T14:54:51.331Z,24.79
2024-05-09T14:57:20.219Z,24.67
2024-05-09T14:59:46.436Z,24.67
2024-05-09T15:02:13.050Z,24.66
2024-05-09T15:04:39.562Z,24.56
2024-05-09T15:07:06.691Z,24.35
2024-05-09T15:09:34.916Z,24.15
2024-05-09T15:12:01.488Z,23.98
2024-05-09T15:14:33.594Z,23.78
2024-05-09T15:16:59.873Z,23.59
2024-05-09T15:19:26.443Z,23.40
2024-05-09T15:21:52.938Z,23.25
2024-05-09T15:24:19.215Z,23.17
2024-05-09T15:26:45.491Z,23.05
2024-05-09T15:29:11.864Z,22.93
2024-05-09T15:31:38.092Z,22.83
2024-05-09T15:34:04.515Z,22.81
2024-05-09T15:36:31.270Z,22.85
2024-05-09T15:38:57.531Z,22.91
2024-05-09T15:41:23.826Z,22.96
2024-05-09T15:43:50.059Z,22.99
2024-05-09T15:46:16.304Z,23.10
2024-05-09T15:48:44.757Z,23.35
2024-05-09T15:51:11.376Z,23.63
2024-05-09T15:53:37.700Z,23.88
2024-05-09T15:56:03.955Z,24.09
2024-05-09T15:58:30.242Z,24.28
2024-05-09T16:00:56.625Z,24.35
2024-05-09T16:03:22.928Z,24.15
2024-05-09T16:05:49.267Z,23.77
2024-05-09T16:08:15.885Z,23.58
2024-05-09T16:10:44.199Z,23.53
2024-05-09T16:13:11.631Z,23.55
2024-05-09T16:15:38.058Z,23.51
2024-05-09T16:18:04.393Z,23.19
2024-05-09T16:20:38.799Z,22.87
2024-05-09T16:23:08.183Z,22.63
2024-05-09T16:25:35.044Z,22.51
2024-05-09T16:28:01.898Z,22.54
2024-05-09T16:30:34.372Z,22.59
2024-05-09T16:33:02.472Z,22.69
2024-05-09T16:35:31.361Z,22.86
2024-05-09T16:37:57.644Z,23.08
2024-05-09T16:40:30.488Z,23.36
2024-05-09T16:43:03.813Z,23.61
2024-05-09T16:45:30.470Z,23.77
2024-05-09T16:47:56.870Z,23.70
2024-05-09T16:50:29.279Z,23.57
2024-05-09T16:52:59.550Z,23.46
2024-05-09T16:55:25.899Z,23.52
2024-05-09T16:57:52.240Z,23.66
2024-05-09T17:00:26.724Z,23.71
2024-05-09T17:03:03.116Z,23.70
2024-05-09T17:05:29.800Z,23.63
2024-05-09T17:08:04.208Z,23.57
2024-05-09T17:10:33.704Z,23.43
2024-05-09T17:13:01.786Z,23.26
2024-05-09T17:15:28.303Z,23.15
2024-05-09T17:17:54.584Z,23.01
2024-05-09T17:20:29.398Z,22.83
2024-05-09T17:23:00.063Z,22.62
2024-05-09T17:25:26.340Z,22.39
2024-05-09T17:27:55.580Z,22.15
2024-05-09T17:30:29.039Z,21.93
2024-05-09T17:33:01.226Z,21.75
2024-05-09T17:35:27.658Z,21.59
2024-05-09T17:37:53.872Z,21.46
2024-05-09T17:40:30.041Z,21.35
2024-05-09T17:42:59.838Z,21.26
2024-05-09T17:45:26.363Z,21.16
2024-05-09T17:47:52.860Z,21.09
2024-05-09T17:50:27.270Z,21.04
2024-05-09T17:53:00.226Z,20.95
2024-05-09T17:55:26.798Z,20.90
2024-05-09T17:57:53.348Z,20.85
2024-05-09T18:00:28.828Z,20.82
2024-05-09T18:03:03.101Z,20.77
2024-05-09T18:05:29.637Z,20.73
2024-05-09T18:07:56.141Z,20.69
2024-05-09T18:10:29.511Z,20.64
2024-05-09T18:13:02.329Z,20.59
2024-05-09T18:15:28.640Z,20.54
2024-05-09T18:17:55.050Z,20.48
2024-05-09T18:20:32.141Z,20.41
2024-05-09T18:23:06.396Z,20.31
2024-05-09T18:25:32.888Z,20.18
2024-05-09T18:27:59.274Z,20.06
2024-05-09T18:30:32.229Z,19.97
2024-05-09T18:33:02.123Z,19.90
2024-05-09T18:35:30.595Z,19.82
2024-05-09T18:37:56.987Z,19.74
2024-05-09T18:42:52.568Z,19.60
2024-05-09T18:45:18.929Z,19.53
2024-05-09T18:47:45.296Z,19.47
2024-05-09T18:50:17.295Z,19.40
2024-05-09T18:52:50.754Z,19.32
2024-05-09T18:55:17.202Z,19.23
2024-05-09T18:57:43.523Z,19.13
2024-05-09T19:00:22.700Z,19.03
2024-05-09T19:02:57.384Z,18.94
2024-05-09T19:05:23.992Z,18.87
2024-05-09T19:07:50.511Z,18.82
2024-05-09T19:12:59.899Z,18.64
2024-05-09T19:15:30.827Z,18.54
2024-05-09T19:18:00.077Z,18.41
2024-05-09T19:20:34.128Z,18.31
2024-05-09T19:23:02.202Z,18.23
2024-05-09T19:25:28.650Z,18.16
2024-05-09T19:27:55.964Z,18.12
2024-05-09T19:30:30.117Z,18.07
2024-05-09T19:33:04.679Z,18.03
2024-05-09T19:35:31.325Z,18.00
2024-05-09T19:37:57.553Z,17.96
2024-05-09T19:40:30.415Z,17.89
2024-05-09T19:43:00.420Z,17.80
2024-05-09T19:45:27.955Z,17.73
2024-05-09T19:47:54.686Z,17.70
2024-05-09T19:50:27.131Z,17.66
2024-05-09T19:53:02.578Z,17.61
2024-05-09T19:55:29.043Z,17.56
2024-05-09T19:57:58.924Z,17.54
2024-05-09T20:00:32.860Z,17.49
2024-05-09T20:03:03.234Z,17.44
2024-05-09T20:05:32.095Z,17.38
2024-05-09T20:07:58.713Z,17.31
2024-05-09T20:10:31.075Z,17.25
2024-05-09T20:13:00.879Z,17.19
2024-05-09T20:15:30.287Z,17.11
2024-05-09T20:17:56.951Z,17.04
2024-05-09T20:20:34.984Z,16.98
2024-05-09T20:23:04.823Z,16.93
2024-05-09T20:25:33.240Z,16.87
2024-05-09T20:28:00.060Z,16.80
2024-05-09T20:30:31.946Z,16.74
2024-05-09T20:33:00.288Z,16.67
2024-05-09T20:35:27.118Z,16.60
2024-05-09T20:37:53.614Z,16.55
2024-05-09T20:40:28.265Z,16.50
2024-05-09T20:42:59.640Z,16.44
2024-05-09T20:45:26.054Z,16.39
2024-05-09T20:47:52.533Z,16.34
2024-05-09T20:50:28.022Z,16.29
2024-05-09T20:53:02.634Z,16.22
2024-05-09T20:55:29.174Z,16.16
2024-05-09T20:57:55.834Z,16.10
2024-05-09T21:00:29.757Z,16.04
2024-05-09T21:03:02.123Z,15.96
2024-05-09T21:05:30.267Z,15.91
2024-05-09T21:07:56.991Z,15.84
2024-05-09T21:10:27.185Z,15.80
2024-05-09T21:12:56.399Z,15.73
2024-05-09T21:15:22.798Z,15.68
2024-05-09T21:17:49.183Z,15.63
2024-05-09T21:20:20.321Z,15.56
2024-05-09T21:22:51.915Z,15.50
2024-05-09T21:25:18.246Z,15.46
2024-05-09T21:27:48.749Z,15.38
2024-05-09T21:30:31.624Z,15.34
2024-05-09T21:33:06.592Z,15.30
2024-05-09T21:35:32.981Z,15.25
2024-05-09T21:37:59.360Z,15.22
2024-05-09T21:40:35.002Z,15.18
2024-05-09T21:43:02.892Z,15.11
2024-05-09T21:45:29.519Z,15.05
2024-05-09T21:47:56.216Z,15.02
2024-05-09T21:50:28.418Z,14.99
2024-05-09T21:53:02.309Z,14.99
2024-05-09T21:55:28.551Z,14.99
2024-05-09T21:57:55.098Z,14.95
2024-05-09T22:00:29.018Z,14.90
2024-05-09T22:03:01.648Z,14.76
2024-05-09T22:05:28.083Z,14.61
2024-05-09T22:07:54.386Z,14.50
2024-05-09T22:10:26.252Z,14.37
2024-05-09T22:13:00.605Z,14.21
2024-05-09T22:15:26.997Z,14.06
2024-05-09T22:17:55.057Z,13.96
2024-05-09T22:20:28.858Z,13.92
2024-05-09T22:23:02.342Z,13.90
2024-05-09T22:25:30.441Z,13.88
2024-05-09T22:27:58.776Z,13.82
2024-05-09T22:30:33.832Z,13.73
2024-05-09T22:33:04.068Z,13.65
2024-05-09T22:35:30.506Z,13.55
2024-05-09T22:37:56.818Z,13.44
2024-05-09T22:40:32.195Z,13.37
2024-05-09T22:43:05.206Z,13.30
2024-05-09T22:45:31.713Z,13.23
2024-05-09T22:48:01.207Z,13.16
2024-05-09T22:50:32.823Z,13.09
2024-05-09T22:52:59.962Z,13.01
2024-05-09T22:55:26.229Z,12.95
2024-05-09T22:57:52.841Z,12.91
2024-05-09T23:00:26.190Z,12.86
2024-05-09T23:02:58.122Z,12.79
2024-05-09T23:05:24.513Z,12.76
2024-05-09T23:07:55.101Z,12.70
2024-05-09T23:10:28.313Z,12.66
2024-05-09T23:13:04.247Z,12.59
2024-05-09T23:15:30.859Z,12.50
2024-05-09T23:17:57.635Z,12.41
2024-05-09T23:20:33.430Z,12.35
2024-05-09T23:23:04.252Z,12.28
2024-05-09T23:25:30.590Z,12.23
2024-05-09T23:27:57.068Z,12.19
2024-05-09T23:30:33.169Z,12.17
2024-05-09T23:33:04.214Z,12.18
2024-05-09T23:35:30.624Z,12.22
2024-05-09T23:37:56.918Z,12.26
2024-05-09T23:40:36.757Z,12.28
2024-05-09T23:43:06.327Z,12.29
2024-05-09T23:45:32.840Z,12.24
2024-05-09T23:47:59.398Z,12.17
2024-05-09T23:50:33.614Z,12.15
2024-05-09T23:53:02.983Z,12.17
2024-05-09T23:55:29.252Z,12.16
2024-05-09T23:57:55.646Z,12.09
